sensor_id;sensor_type;location;lat;lon;timestamp;P1;durP1;ratioP1;P2;durP2;ratioP2
11986;SDS011;6053;51.382;6.768;2023-04-24T00:00:41;0.30;;;0.30;;
11986;SDS011;6053;51.382;6.768;2023-04-24T00:03:11;0.40;;;0.40;;
11986;SDS011;6053;51.382;6.768;2023-04-24T00:05:41;0.80;;;0.50;;
11986;SDS011;6053;51.382;6.768;2023-04-24T00:08:10;0.37;;;0.37;;
11986;SDS011;6053;51.382;6.768;2023-04-24T00:10:39;0.60;;;0.60;;
11986;SDS011;6053;51.382;6.768;2023-04-24T00:13:08;0.60;;;0.47;;
11986;SDS011;6053;51.382;6.768;2023-04-24T00:15:36;0.50;;;0.50;;
11986;SDS011;6053;51.382;6.768;2023-04-24T00:18:05;0.40;;;0.40;;
11986;SDS011;6053;51.382;6.768;2023-04-24T00:20:34;1.20;;;0.60;;
11986;SDS011;6053;51.382;6.768;2023-04-24T00:23:04;0.55;;;0.50;;
11986;SDS011;6053;51.382;6.768;2023-04-24T00:25:32;0.52;;;0.52;;
11986;SDS011;6053;51.382;6.768;2023-04-24T00:28:01;0.77;;;0.70;;
11986;SDS011;6053;51.382;6.768;2023-04-24T00:30:30;0.40;;;0.40;;
11986;SDS011;6053;51.382;6.768;2023-04-24T00:32:58;0.50;;;0.50;;
11986;SDS011;6053;51.382;6.768;2023-04-24T00:35:27;1.60;;;0.60;;
11986;SDS011;6053;51.382;6.768;2023-04-24T00:37:55;0.40;;;0.40;;
11986;SDS011;6053;51.382;6.768;2023-04-24T00:40:26;0.50;;;0.32;;
11986;SDS011;6053;51.382;6.768;2023-04-24T00:42:55;0.57;;;0.57;;
11986;SDS011;6053;51.382;6.768;2023-04-24T00:45:24;0.60;;;0.47;;
11986;SDS011;6053;51.382;6.768;2023-04-24T00:47:53;0.50;;;0.50;;
11986;SDS011;6053;51.382;6.768;2023-04-24T00:50:21;0.65;;;0.50;;
11986;SDS011;6053;51.382;6.768;2023-04-24T00:52:51;0.82;;;0.55;;
11986;SDS011;6053;51.382;6.768;2023-04-24T00:55:20;0.30;;;0.30;;
11986;SDS011;6053;51.382;6.768;2023-04-24T00:57:50;0.47;;;0.47;;
11986;SDS011;6053;51.382;6.768;2023-04-24T01:00:19;0.90;;;0.90;;
11986;SDS011;6053;51.382;6.768;2023-04-24T01:02:47;1.70;;;1.00;;
11986;SDS011;6053;51.382;6.768;2023-04-24T01:05:18;0.80;;;0.80;;
11986;SDS011;6053;51.382;6.768;2023-04-24T01:07:46;2.73;;;1.30;;
11986;SDS011;6053;51.382;6.768;2023-04-24T01:10:15;0.82;;;0.82;;
11986;SDS011;6053;51.382;6.768;2023-04-24T01:12:46;0.85;;;0.85;;
11986;SDS011;6053;51.382;6.768;2023-04-24T01:15:16;1.30;;;1.20;;
11986;SDS011;6053;51.382;6.768;2023-04-24T01:17:45;0.63;;;0.55;;
11986;SDS011;6053;51.382;6.768;2023-04-24T01:20:14;1.00;;;0.95;;
11986;SDS011;6053;51.382;6.768;2023-04-24T01:22:44;1.17;;;0.93;;
11986;SDS011;6053;51.382;6.768;2023-04-24T01:25:13;1.63;;;1.30;;
11986;SDS011;6053;51.382;6.768;2023-04-24T01:27:41;0.60;;;0.60;;
11986;SDS011;6053;51.382;6.768;2023-04-24T01:30:11;0.60;;;0.60;;
11986;SDS011;6053;51.382;6.768;2023-04-24T01:32:41;1.20;;;0.87;;
11986;SDS011;6053;51.382;6.768;2023-04-24T01:35:11;1.45;;;1.23;;
11986;SDS011;6053;51.382;6.768;2023-04-24T01:37:39;1.23;;;1.10;;
11986;SDS011;6053;51.382;6.768;2023-04-24T01:40:10;1.20;;;1.10;;
11986;SDS011;6053;51.382;6.768;2023-04-24T01:42:39;0.88;;;0.55;;
11986;SDS011;6053;51.382;6.768;2023-04-24T01:45:10;1.17;;;0.98;;
11986;SDS011;6053;51.382;6.768;2023-04-24T01:47:40;0.60;;;0.60;;
11986;SDS011;6053;51.382;6.768;2023-04-24T01:50:09;0.60;;;0.60;;
11986;SDS011;6053;51.382;6.768;2023-04-24T01:52:38;0.95;;;0.90;;
11986;SDS011;6053;51.382;6.768;2023-04-24T01:55:07;0.90;;;0.90;;
11986;SDS011;6053;51.382;6.768;2023-04-24T01:57:37;0.80;;;0.80;;
11986;SDS011;6053;51.382;6.768;2023-04-24T02:00:07;0.50;;;0.50;;
11986;SDS011;6053;51.382;6.768;2023-04-24T02:02:38;1.80;;;1.33;;
11986;SDS011;6053;51.382;6.768;2023-04-24T02:05:11;0.80;;;0.80;;
11986;SDS011;6053;51.382;6.768;2023-04-24T02:07:39;1.35;;;1.25;;
11986;SDS011;6053;51.382;6.768;2023-04-24T02:10:10;1.42;;;1.33;;
11986;SDS011;6053;51.382;6.768;2023-04-24T02:12:39;1.30;;;1.20;;
11986;SDS011;6053;51.382;6.768;2023-04-24T02:15:07;2.50;;;1.70;;
11986;SDS011;6053;51.382;6.768;2023-04-24T02:17:37;0.70;;;0.70;;
11986;SDS011;6053;51.382;6.768;2023-04-24T02:20:06;1.77;;;1.42;;
11986;SDS011;6053;51.382;6.768;2023-04-24T02:22:35;0.85;;;0.80;;
11986;SDS011;6053;51.382;6.768;2023-04-24T02:25:04;1.50;;;1.40;;
11986;SDS011;6053;51.382;6.768;2023-04-24T02:27:35;1.35;;;1.25;;
11986;SDS011;6053;51.382;6.768;2023-04-24T02:30:04;1.48;;;1.15;;
11986;SDS011;6053;51.382;6.768;2023-04-24T02:32:34;1.83;;;1.17;;
11986;SDS011;6053;51.382;6.768;2023-04-24T02:35:03;2.33;;;1.98;;
11986;SDS011;6053;51.382;6.768;2023-04-24T02:37:32;1.05;;;1.05;;
11986;SDS011;6053;51.382;6.768;2023-04-24T02:40:00;1.90;;;1.25;;
11986;SDS011;6053;51.382;6.768;2023-04-24T02:42:31;2.22;;;1.23;;
11986;SDS011;6053;51.382;6.768;2023-04-24T02:45:01;2.10;;;1.90;;
11986;SDS011;6053;51.382;6.768;2023-04-24T02:47:31;2.10;;;1.90;;
11986;SDS011;6053;51.382;6.768;2023-04-24T02:50:00;2.83;;;2.60;;
11986;SDS011;6053;51.382;6.768;2023-04-24T02:52:29;3.72;;;2.33;;
11986;SDS011;6053;51.382;6.768;2023-04-24T02:54:57;1.10;;;1.00;;
11986;SDS011;6053;51.382;6.768;2023-04-24T02:57:26;2.57;;;2.33;;
11986;SDS011;6053;51.382;6.768;2023-04-24T02:59:54;2.47;;;2.28;;
11986;SDS011;6053;51.382;6.768;2023-04-24T03:02:24;3.95;;;2.20;;
11986;SDS011;6053;51.382;6.768;2023-04-24T03:04:53;5.47;;;2.92;;
11986;SDS011;6053;51.382;6.768;2023-04-24T03:07:23;1.77;;;1.50;;
11986;SDS011;6053;51.382;6.768;2023-04-24T03:09:51;3.15;;;2.47;;
11986;SDS011;6053;51.382;6.768;2023-04-24T03:12:20;3.85;;;2.38;;
11986;SDS011;6053;51.382;6.768;2023-04-24T03:14:50;3.03;;;2.30;;
11986;SDS011;6053;51.382;6.768;2023-04-24T03:17:18;1.75;;;1.50;;
11986;SDS011;6053;51.382;6.768;2023-04-24T03:19:48;3.63;;;2.22;;
11986;SDS011;6053;51.382;6.768;2023-04-24T03:22:17;1.85;;;1.70;;
11986;SDS011;6053;51.382;6.768;2023-04-24T03:24:46;4.37;;;2.63;;
11986;SDS011;6053;51.382;6.768;2023-04-24T03:27:14;3.60;;;2.08;;
11986;SDS011;6053;51.382;6.768;2023-04-24T03:29:43;3.85;;;2.17;;
11986;SDS011;6053;51.382;6.768;2023-04-24T03:32:11;2.38;;;1.92;;
11986;SDS011;6053;51.382;6.768;2023-04-24T03:34:40;2.53;;;2.13;;
11986;SDS011;6053;51.382;6.768;2023-04-24T03:37:10;3.33;;;2.05;;
11986;SDS011;6053;51.382;6.768;2023-04-24T03:39:39;2.17;;;1.83;;
11986;SDS011;6053;51.382;6.768;2023-04-24T03:42:08;2.80;;;1.98;;
11986;SDS011;6053;51.382;6.768;2023-04-24T03:44:36;4.05;;;2.70;;
11986;SDS011;6053;51.382;6.768;2023-04-24T03:47:05;2.90;;;2.50;;
11986;SDS011;6053;51.382;6.768;2023-04-24T03:49:33;3.05;;;2.00;;
11986;SDS011;6053;51.382;6.768;2023-04-24T03:52:02;2.65;;;2.03;;
11986;SDS011;6053;51.382;6.768;2023-04-24T03:54:32;2.25;;;2.08;;
11986;SDS011;6053;51.382;6.768;2023-04-24T03:57:01;5.63;;;2.10;;
11986;SDS011;6053;51.382;6.768;2023-04-24T03:59:30;1.48;;;1.38;;
11986;SDS011;6053;51.382;6.768;2023-04-24T04:01:59;1.60;;;1.50;;
11986;SDS011;6053;51.382;6.768;2023-04-24T04:04:28;3.38;;;2.13;;
11986;SDS011;6053;51.382;6.768;2023-04-24T04:06:57;3.38;;;2.05;;
11986;SDS011;6053;51.382;6.768;2023-04-24T04:09:27;1.60;;;1.50;;
11986;SDS011;6053;51.382;6.768;2023-04-24T04:11:57;1.87;;;1.23;;
11986;SDS011;6053;51.382;6.768;2023-04-24T04:14:26;1.80;;;1.70;;
11986;SDS011;6053;51.382;6.768;2023-04-24T04:16:55;2.17;;;1.70;;
11986;SDS011;6053;51.382;6.768;2023-04-24T04:19:24;1.45;;;1.20;;
11986;SDS011;6053;51.382;6.768;2023-04-24T04:21:53;1.90;;;1.48;;
11986;SDS011;6053;51.382;6.768;2023-04-24T04:24:22;4.18;;;2.22;;
11986;SDS011;6053;51.382;6.768;2023-04-24T04:26:52;2.05;;;1.77;;
11986;SDS011;6053;51.382;6.768;2023-04-24T04:29:25;2.25;;;1.90;;
11986;SDS011;6053;51.382;6.768;2023-04-24T04:31:54;0.68;;;0.68;;
11986;SDS011;6053;51.382;6.768;2023-04-24T04:34:23;2.22;;;1.60;;
11986;SDS011;6053;51.382;6.768;2023-04-24T04:36:51;1.23;;;1.15;;
11986;SDS011;6053;51.382;6.768;2023-04-24T04:39:20;1.58;;;1.27;;
11986;SDS011;6053;51.382;6.768;2023-04-24T04:41:48;2.35;;;1.90;;
11986;SDS011;6053;51.382;6.768;2023-04-24T04:44:17;2.40;;;1.43;;
11986;SDS011;6053;51.382;6.768;2023-04-24T04:46:47;1.10;;;1.10;;
11986;SDS011;6053;51.382;6.768;2023-04-24T04:49:16;3.37;;;2.10;;
11986;SDS011;6053;51.382;6.768;2023-04-24T04:51:45;2.05;;;1.92;;
11986;SDS011;6053;51.382;6.768;2023-04-24T04:54:13;2.92;;;2.05;;
11986;SDS011;6053;51.382;6.768;2023-04-24T04:56:42;1.70;;;1.60;;
11986;SDS011;6053;51.382;6.768;2023-04-24T04:59:10;1.67;;;1.17;;
11986;SDS011;6053;51.382;6.768;2023-04-24T05:01:39;1.25;;;1.15;;
11986;SDS011;6053;51.382;6.768;2023-04-24T05:04:09;3.08;;;2.10;;
11986;SDS011;6053;51.382;6.768;2023-04-24T05:06:38;1.47;;;1.37;;
11986;SDS011;6053;51.382;6.768;2023-04-24T05:09:07;1.23;;;1.20;;
11986;SDS011;6053;51.382;6.768;2023-04-24T05:11:35;1.90;;;1.70;;
11986;SDS011;6053;51.382;6.768;2023-04-24T05:14:04;1.83;;;1.70;;
11986;SDS011;6053;51.382;6.768;2023-04-24T05:16:33;3.55;;;1.75;;
11986;SDS011;6053;51.382;6.768;2023-04-24T05:19:03;3.60;;;2.20;;
11986;SDS011;6053;51.382;6.768;2023-04-24T05:21:33;2.53;;;2.30;;
11986;SDS011;6053;51.382;6.768;2023-04-24T05:24:01;0.47;;;0.47;;
11986;SDS011;6053;51.382;6.768;2023-04-24T05:26:31;2.45;;;1.75;;
11986;SDS011;6053;51.382;6.768;2023-04-24T05:28:59;1.60;;;1.50;;
11986;SDS011;6053;51.382;6.768;2023-04-24T05:31:28;1.65;;;1.55;;
11986;SDS011;6053;51.382;6.768;2023-04-24T05:33:57;2.40;;;1.98;;
11986;SDS011;6053;51.382;6.768;2023-04-24T05:36:25;1.10;;;1.10;;
11986;SDS011;6053;51.382;6.768;2023-04-24T05:38:55;2.40;;;2.20;;
11986;SDS011;6053;51.382;6.768;2023-04-24T05:41:24;1.20;;;1.17;;
11986;SDS011;6053;51.382;6.768;2023-04-24T05:43:52;1.77;;;1.67;;
11986;SDS011;6053;51.382;6.768;2023-04-24T05:46:21;1.67;;;1.40;;
11986;SDS011;6053;51.382;6.768;2023-04-24T05:48:50;1.73;;;1.63;;
11986;SDS011;6053;51.382;6.768;2023-04-24T05:51:18;1.60;;;1.58;;
11986;SDS011;6053;51.382;6.768;2023-04-24T05:53:47;1.63;;;1.53;;
11986;SDS011;6053;51.382;6.768;2023-04-24T05:56:17;2.20;;;1.90;;
11986;SDS011;6053;51.382;6.768;2023-04-24T05:58:46;1.50;;;1.40;;
11986;SDS011;6053;51.382;6.768;2023-04-24T06:01:15;2.07;;;1.97;;
11986;SDS011;6053;51.382;6.768;2023-04-24T06:03:44;2.58;;;1.77;;
11986;SDS011;6053;51.382;6.768;2023-04-24T06:06:13;1.77;;;1.67;;
11986;SDS011;6053;51.382;6.768;2023-04-24T06:08:42;1.65;;;1.55;;
11986;SDS011;6053;51.382;6.768;2023-04-24T06:11:11;1.92;;;1.80;;
11986;SDS011;6053;51.382;6.768;2023-04-24T06:13:41;2.00;;;1.42;;
11986;SDS011;6053;51.382;6.768;2023-04-24T06:16:10;1.52;;;1.42;;
11986;SDS011;6053;51.382;6.768;2023-04-24T06:18:39;1.77;;;1.45;;
11986;SDS011;6053;51.382;6.768;2023-04-24T06:21:08;1.65;;;1.55;;
11986;SDS011;6053;51.382;6.768;2023-04-24T06:23:36;1.53;;;1.43;;
11986;SDS011;6053;51.382;6.768;2023-04-24T06:26:05;1.55;;;1.45;;
11986;SDS011;6053;51.382;6.768;2023-04-24T06:28:33;1.33;;;1.23;;
11986;SDS011;6053;51.382;6.768;2023-04-24T06:31:03;1.50;;;1.40;;
11986;SDS011;6053;51.382;6.768;2023-04-24T06:33:32;1.98;;;1.77;;
11986;SDS011;6053;51.382;6.768;2023-04-24T06:36:01;1.70;;;1.60;;
11986;SDS011;6053;51.382;6.768;2023-04-24T06:38:30;1.60;;;1.50;;
11986;SDS011;6053;51.382;6.768;2023-04-24T06:40:58;1.27;;;0.93;;
11986;SDS011;6053;51.382;6.768;2023-04-24T06:43:27;1.20;;;1.10;;
11986;SDS011;6053;51.382;6.768;2023-04-24T06:45:56;1.50;;;1.40;;
11986;SDS011;6053;51.382;6.768;2023-04-24T06:48:26;1.20;;;1.20;;
11986;SDS011;6053;51.382;6.768;2023-04-24T06:50:55;1.13;;;1.08;;
11986;SDS011;6053;51.382;6.768;2023-04-24T06:53:23;1.20;;;1.10;;
11986;SDS011;6053;51.382;6.768;2023-04-24T06:58:26;1.27;;;1.27;;
11986;SDS011;6053;51.382;6.768;2023-04-24T07:00:55;2.10;;;1.08;;
11986;SDS011;6053;51.382;6.768;2023-04-24T07:03:23;0.80;;;0.80;;
11986;SDS011;6053;51.382;6.768;2023-04-24T07:05:53;1.23;;;1.20;;
11986;SDS011;6053;51.382;6.768;2023-04-24T07:08:24;1.10;;;1.10;;
11986;SDS011;6053;51.382;6.768;2023-04-24T07:10:52;1.00;;;1.00;;
11986;SDS011;6053;51.382;6.768;2023-04-24T07:13:22;0.90;;;0.90;;
11986;SDS011;6053;51.382;6.768;2023-04-24T07:15:51;1.37;;;1.00;;
11986;SDS011;6053;51.382;6.768;2023-04-24T07:18:21;0.93;;;0.93;;
11986;SDS011;6053;51.382;6.768;2023-04-24T07:20:50;1.00;;;1.00;;
11986;SDS011;6053;51.382;6.768;2023-04-24T07:23:20;0.70;;;0.70;;
11986;SDS011;6053;51.382;6.768;2023-04-24T07:25:48;0.87;;;0.87;;
11986;SDS011;6053;51.382;6.768;2023-04-24T07:28:17;0.70;;;0.70;;
11986;SDS011;6053;51.382;6.768;2023-04-24T07:30:45;0.70;;;0.70;;
11986;SDS011;6053;51.382;6.768;2023-04-24T07:33:14;0.47;;;0.47;;
11986;SDS011;6053;51.382;6.768;2023-04-24T07:35:43;0.75;;;0.63;;
11986;SDS011;6053;51.382;6.768;2023-04-24T07:38:11;0.50;;;0.50;;
11986;SDS011;6053;51.382;6.768;2023-04-24T07:40:41;0.57;;;0.57;;
11986;SDS011;6053;51.382;6.768;2023-04-24T07:43:13;0.57;;;0.57;;
11986;SDS011;6053;51.382;6.768;2023-04-24T07:45:41;0.52;;;0.52;;
11986;SDS011;6053;51.382;6.768;2023-04-24T07:48:10;0.40;;;0.40;;
11986;SDS011;6053;51.382;6.768;2023-04-24T07:50:41;0.40;;;0.40;;
11986;SDS011;6053;51.382;6.768;2023-04-24T07:53:09;0.60;;;0.60;;
11986;SDS011;6053;51.382;6.768;2023-04-24T07:55:38;0.40;;;0.40;;
11986;SDS011;6053;51.382;6.768;2023-04-24T07:58:08;0.50;;;0.50;;
11986;SDS011;6053;51.382;6.768;2023-04-24T08:00:36;0.52;;;0.52;;
11986;SDS011;6053;51.382;6.768;2023-04-24T08:03:05;0.45;;;0.45;;
11986;SDS011;6053;51.382;6.768;2023-04-24T08:05:34;0.47;;;0.47;;
11986;SDS011;6053;51.382;6.768;2023-04-24T08:08:06;0.63;;;0.63;;
11986;SDS011;6053;51.382;6.768;2023-04-24T08:10:34;0.50;;;0.50;;
11986;SDS011;6053;51.382;6.768;2023-04-24T08:13:03;0.50;;;0.50;;
11986;SDS011;6053;51.382;6.768;2023-04-24T08:15:33;3.40;;;0.57;;
11986;SDS011;6053;51.382;6.768;2023-04-24T08:18:02;0.50;;;0.50;;
11986;SDS011;6053;51.382;6.768;2023-04-24T08:20:31;0.65;;;0.65;;
11986;SDS011;6053;51.382;6.768;2023-04-24T08:22:59;0.50;;;0.50;;
11986;SDS011;6053;51.382;6.768;2023-04-24T08:25:28;1.00;;;0.47;;
11986;SDS011;6053;51.382;6.768;2023-04-24T08:27:56;0.52;;;0.52;;
11986;SDS011;6053;51.382;6.768;2023-04-24T08:30:25;0.90;;;0.90;;
11986;SDS011;6053;51.382;6.768;2023-04-24T08:32:55;3.17;;;1.30;;
11986;SDS011;6053;51.382;6.768;2023-04-24T08:35:24;0.63;;;0.63;;
11986;SDS011;6053;51.382;6.768;2023-04-24T08:37:52;0.50;;;0.50;;
11986;SDS011;6053;51.382;6.768;2023-04-24T08:40:22;0.63;;;0.63;;
11986;SDS011;6053;51.382;6.768;2023-04-24T08:42:55;0.90;;;0.80;;
11986;SDS011;6053;51.382;6.768;2023-04-24T08:45:24;0.68;;;0.68;;
11986;SDS011;6053;51.382;6.768;2023-04-24T08:47:53;0.40;;;0.40;;
11986;SDS011;6053;51.382;6.768;2023-04-24T08:50:25;0.50;;;0.50;;
11986;SDS011;6053;51.382;6.768;2023-04-24T08:52:53;0.85;;;0.80;;
11986;SDS011;6053;51.382;6.768;2023-04-24T08:55:23;0.50;;;0.50;;
11986;SDS011;6053;51.382;6.768;2023-04-24T08:57:52;0.70;;;0.70;;
11986;SDS011;6053;51.382;6.768;2023-04-24T09:00:22;0.77;;;0.77;;
11986;SDS011;6053;51.382;6.768;2023-04-24T09:02:51;0.70;;;0.70;;
11986;SDS011;6053;51.382;6.768;2023-04-24T09:05:23;1.02;;;1.00;;
11986;SDS011;6053;51.382;6.768;2023-04-24T09:07:54;0.77;;;0.77;;
11986;SDS011;6053;51.382;6.768;2023-04-24T09:10:24;2.00;;;1.30;;
11986;SDS011;6053;51.382;6.768;2023-04-24T09:12:54;1.00;;;1.00;;
11986;SDS011;6053;51.382;6.768;2023-04-24T09:15:24;1.17;;;1.10;;
11986;SDS011;6053;51.382;6.768;2023-04-24T09:17:53;0.80;;;0.80;;
11986;SDS011;6053;51.382;6.768;2023-04-24T09:20:23;1.30;;;1.20;;
11986;SDS011;6053;51.382;6.768;2023-04-24T09:22:53;1.02;;;1.02;;
11986;SDS011;6053;51.382;6.768;2023-04-24T09:25:22;1.30;;;1.20;;
11986;SDS011;6053;51.382;6.768;2023-04-24T09:28:00;1.10;;;1.10;;
11986;SDS011;6053;51.382;6.768;2023-04-24T09:30:29;1.00;;;1.00;;
11986;SDS011;6053;51.382;6.768;2023-04-24T09:33:10;0.93;;;0.93;;
11986;SDS011;6053;51.382;6.768;2023-04-24T09:35:41;1.30;;;1.20;;
11986;SDS011;6053;51.382;6.768;2023-04-24T09:38:15;1.40;;;1.30;;
11986;SDS011;6053;51.382;6.768;2023-04-24T09:40:44;0.90;;;0.90;;
11986;SDS011;6053;51.382;6.768;2023-04-24T09:43:12;1.40;;;0.75;;
11986;SDS011;6053;51.382;6.768;2023-04-24T09:45:41;1.20;;;1.20;;
11986;SDS011;6053;51.382;6.768;2023-04-24T09:48:10;1.33;;;0.77;;
11986;SDS011;6053;51.382;6.768;2023-04-24T09:50:38;0.63;;;0.63;;
11986;SDS011;6053;51.382;6.768;2023-04-24T09:53:14;0.80;;;0.80;;
11986;SDS011;6053;51.382;6.768;2023-04-24T09:55:45;1.30;;;0.80;;
11986;SDS011;6053;51.382;6.768;2023-04-24T09:58:15;0.80;;;0.80;;
11986;SDS011;6053;51.382;6.768;2023-04-24T10:00:43;1.98;;;1.60;;
11986;SDS011;6053;51.382;6.768;2023-04-24T10:03:14;2.35;;;1.70;;
11986;SDS011;6053;51.382;6.768;2023-04-24T10:05:45;3.10;;;1.90;;
11986;SDS011;6053;51.382;6.768;2023-04-24T10:08:15;2.47;;;1.50;;
11986;SDS011;6053;51.382;6.768;2023-04-24T10:10:44;1.50;;;1.10;;
11986;SDS011;6053;51.382;6.768;2023-04-24T10:13:14;2.53;;;1.40;;
11986;SDS011;6053;51.382;6.768;2023-04-24T10:15:43;1.00;;;0.90;;
11986;SDS011;6053;51.382;6.768;2023-04-24T10:18:13;2.42;;;1.60;;
11986;SDS011;6053;51.382;6.768;2023-04-24T10:20:43;3.20;;;1.43;;
11986;SDS011;6053;51.382;6.768;2023-04-24T10:23:12;1.42;;;0.95;;
11986;SDS011;6053;51.382;6.768;2023-04-24T10:25:42;2.00;;;1.15;;
11986;SDS011;6053;51.382;6.768;2023-04-24T10:28:12;1.17;;;1.08;;
11986;SDS011;6053;51.382;6.768;2023-04-24T10:30:42;0.75;;;0.75;;
11986;SDS011;6053;51.382;6.768;2023-04-24T10:33:12;2.83;;;1.20;;
11986;SDS011;6053;51.382;6.768;2023-04-24T10:35:42;2.00;;;1.25;;
11986;SDS011;6053;51.382;6.768;2023-04-24T10:38:17;2.45;;;1.10;;
11986;SDS011;6053;51.382;6.768;2023-04-24T10:40:51;1.93;;;1.20;;
11986;SDS011;6053;51.382;6.768;2023-04-24T10:43:34;1.00;;;0.90;;
11986;SDS011;6053;51.382;6.768;2023-04-24T10:46:04;3.40;;;1.40;;
11986;SDS011;6053;51.382;6.768;2023-04-24T10:48:34;1.35;;;1.17;;
11986;SDS011;6053;51.382;6.768;2023-04-24T10:51:03;0.75;;;0.68;;
11986;SDS011;6053;51.382;6.768;2023-04-24T10:53:32;1.30;;;1.03;;
11986;SDS011;6053;51.382;6.768;2023-04-24T10:56:05;3.55;;;1.60;;
11986;SDS011;6053;51.382;6.768;2023-04-24T10:58:36;2.67;;;1.30;;
11986;SDS011;6053;51.382;6.768;2023-04-24T11:01:06;1.63;;;1.20;;
11986;SDS011;6053;51.382;6.768;2023-04-24T11:03:35;1.67;;;1.23;;
11986;SDS011;6053;51.382;6.768;2023-04-24T11:06:08;4.70;;;1.83;;
11986;SDS011;6053;51.382;6.768;2023-04-24T11:08:38;4.63;;;2.13;;
11986;SDS011;6053;51.382;6.768;2023-04-24T11:11:11;1.10;;;1.10;;
11986;SDS011;6053;51.382;6.768;2023-04-24T11:16:43;1.40;;;1.13;;
11986;SDS011;6053;51.382;6.768;2023-04-24T11:19:20;2.38;;;1.60;;
11986;SDS011;6053;51.382;6.768;2023-04-24T11:21:55;2.05;;;1.02;;
11986;SDS011;6053;51.382;6.768;2023-04-24T11:24:29;8.70;;;2.00;;
11986;SDS011;6053;51.382;6.768;2023-04-24T11:27:04;4.32;;;1.58;;
11986;SDS011;6053;51.382;6.768;2023-04-24T11:29:38;2.40;;;1.40;;
11986;SDS011;6053;51.382;6.768;2023-04-24T11:32:15;1.75;;;1.00;;
11986;SDS011;6053;51.382;6.768;2023-04-24T11:34:54;0.80;;;0.80;;
11986;SDS011;6053;51.382;6.768;2023-04-24T11:37:24;4.07;;;1.90;;
11986;SDS011;6053;51.382;6.768;2023-04-24T11:39:55;3.28;;;1.50;;
11986;SDS011;6053;51.382;6.768;2023-04-24T11:42:26;1.63;;;0.90;;
11986;SDS011;6053;51.382;6.768;2023-04-24T11:45:00;1.63;;;1.02;;
11986;SDS011;6053;51.382;6.768;2023-04-24T11:47:30;4.53;;;1.33;;
11986;SDS011;6053;51.382;6.768;2023-04-24T11:50:00;0.85;;;0.85;;
11986;SDS011;6053;51.382;6.768;2023-04-24T11:52:30;2.60;;;1.33;;
11986;SDS011;6053;51.382;6.768;2023-04-24T11:54:58;4.38;;;1.60;;
11986;SDS011;6053;51.382;6.768;2023-04-24T11:57:29;1.73;;;1.37;;
11986;SDS011;6053;51.382;6.768;2023-04-24T12:00:00;1.77;;;1.27;;
11986;SDS011;6053;51.382;6.768;2023-04-24T12:02:31;3.47;;;1.27;;
11986;SDS011;6053;51.382;6.768;2023-04-24T12:05:02;1.05;;;0.75;;
11986;SDS011;6053;51.382;6.768;2023-04-24T12:07:31;2.10;;;1.40;;
11986;SDS011;6053;51.382;6.768;2023-04-24T12:10:09;1.52;;;1.10;;
11986;SDS011;6053;51.382;6.768;2023-04-24T12:12:39;1.83;;;1.08;;
11986;SDS011;6053;51.382;6.768;2023-04-24T12:15:08;1.70;;;1.10;;
11986;SDS011;6053;51.382;6.768;2023-04-24T12:17:40;2.25;;;1.25;;
11986;SDS011;6053;51.382;6.768;2023-04-24T12:20:10;2.50;;;1.10;;
11986;SDS011;6053;51.382;6.768;2023-04-24T12:22:43;1.42;;;1.10;;
11986;SDS011;6053;51.382;6.768;2023-04-24T12:25:13;2.20;;;0.90;;
11986;SDS011;6053;51.382;6.768;2023-04-24T12:27:44;2.08;;;1.05;;
11986;SDS011;6053;51.382;6.768;2023-04-24T12:30:14;1.55;;;0.82;;
11986;SDS011;6053;51.382;6.768;2023-04-24T12:32:43;2.92;;;1.10;;
11986;SDS011;6053;51.382;6.768;2023-04-24T12:35:14;1.02;;;0.70;;
11986;SDS011;6053;51.382;6.768;2023-04-24T12:37:47;1.73;;;0.98;;
11986;SDS011;6053;51.382;6.768;2023-04-24T12:40:17;0.73;;;0.70;;
11986;SDS011;6053;51.382;6.768;2023-04-24T12:42:49;1.90;;;1.10;;
11986;SDS011;6053;51.382;6.768;2023-04-24T12:45:19;2.72;;;1.20;;
11986;SDS011;6053;51.382;6.768;2023-04-24T12:47:51;0.80;;;0.80;;
11986;SDS011;6053;51.382;6.768;2023-04-24T12:50:20;1.00;;;1.00;;
11986;SDS011;6053;51.382;6.768;2023-04-24T12:52:49;2.60;;;1.00;;
11986;SDS011;6053;51.382;6.768;2023-04-24T12:55:17;0.80;;;0.80;;
11986;SDS011;6053;51.382;6.768;2023-04-24T12:57:46;1.67;;;0.85;;
11986;SDS011;6053;51.382;6.768;2023-04-24T13:00:20;3.20;;;1.20;;
11986;SDS011;6053;51.382;6.768;2023-04-24T13:02:49;1.33;;;1.10;;
11986;SDS011;6053;51.382;6.768;2023-04-24T13:05:18;2.38;;;1.10;;
11986;SDS011;6053;51.382;6.768;2023-04-24T13:07:50;2.08;;;1.23;;
11986;SDS011;6053;51.382;6.768;2023-04-24T13:10:20;0.82;;;0.82;;
11986;SDS011;6053;51.382;6.768;2023-04-24T13:12:51;3.75;;;1.00;;
11986;SDS011;6053;51.382;6.768;2023-04-24T13:15:20;2.60;;;1.40;;
11986;SDS011;6053;51.382;6.768;2023-04-24T13:17:51;0.60;;;0.60;;
11986;SDS011;6053;51.382;6.768;2023-04-24T13:20:20;0.90;;;0.90;;
11986;SDS011;6053;51.382;6.768;2023-04-24T13:22:50;0.90;;;0.90;;
11986;SDS011;6053;51.382;6.768;2023-04-24T13:25:19;1.00;;;0.70;;
11986;SDS011;6053;51.382;6.768;2023-04-24T13:27:51;2.03;;;1.00;;
11986;SDS011;6053;51.382;6.768;2023-04-24T13:30:20;1.38;;;0.90;;
11986;SDS011;6053;51.382;6.768;2023-04-24T13:32:50;0.68;;;0.63;;
11986;SDS011;6053;51.382;6.768;2023-04-24T13:35:19;0.70;;;0.70;;
11986;SDS011;6053;51.382;6.768;2023-04-24T13:37:48;0.52;;;0.52;;
11986;SDS011;6053;51.382;6.768;2023-04-24T13:40:17;1.92;;;1.00;;
11986;SDS011;6053;51.382;6.768;2023-04-24T13:42:46;1.83;;;1.13;;
11986;SDS011;6053;51.382;6.768;2023-04-24T13:45:17;0.70;;;0.70;;
11986;SDS011;6053;51.382;6.768;2023-04-24T13:47:51;1.70;;;0.80;;
11986;SDS011;6053;51.382;6.768;2023-04-24T13:50:21;0.60;;;0.60;;
11986;SDS011;6053;51.382;6.768;2023-04-24T13:52:50;0.55;;;0.55;;
11986;SDS011;6053;51.382;6.768;2023-04-24T13:55:19;0.40;;;0.40;;
11986;SDS011;6053;51.382;6.768;2023-04-24T13:57:50;0.80;;;0.75;;
11986;SDS011;6053;51.382;6.768;2023-04-24T14:00:23;0.80;;;0.80;;
11986;SDS011;6053;51.382;6.768;2023-04-24T14:02:52;0.52;;;0.52;;
11986;SDS011;6053;51.382;6.768;2023-04-24T14:05:23;1.60;;;1.02;;
11986;SDS011;6053;51.382;6.768;2023-04-24T14:07:53;1.25;;;0.70;;
11986;SDS011;6053;51.382;6.768;2023-04-24T14:10:22;1.42;;;0.75;;
11986;SDS011;6053;51.382;6.768;2023-04-24T14:12:52;2.22;;;0.90;;
11986;SDS011;6053;51.382;6.768;2023-04-24T14:15:22;1.30;;;0.90;;
11986;SDS011;6053;51.382;6.768;2023-04-24T14:17:52;1.17;;;1.08;;
11986;SDS011;6053;51.382;6.768;2023-04-24T14:20:22;1.50;;;0.98;;
11986;SDS011;6053;51.382;6.768;2023-04-24T14:22:51;1.00;;;0.60;;
11986;SDS011;6053;51.382;6.768;2023-04-24T14:25:21;0.80;;;0.80;;
11986;SDS011;6053;51.382;6.768;2023-04-24T14:27:50;2.00;;;0.90;;
11986;SDS011;6053;51.382;6.768;2023-04-24T14:30:19;0.60;;;0.60;;
11986;SDS011;6053;51.382;6.768;2023-04-24T14:32:49;2.13;;;0.77;;
11986;SDS011;6053;51.382;6.768;2023-04-24T14:35:19;0.63;;;0.63;;
11986;SDS011;6053;51.382;6.768;2023-04-24T14:37:54;0.60;;;0.60;;
11986;SDS011;6053;51.382;6.768;2023-04-24T14:40:23;2.83;;;1.02;;
11986;SDS011;6053;51.382;6.768;2023-04-24T14:43:14;0.70;;;0.70;;
11986;SDS011;6053;51.382;6.768;2023-04-24T14:45:43;0.73;;;0.70;;
11986;SDS011;6053;51.382;6.768;2023-04-24T14:48:14;0.57;;;0.57;;
11986;SDS011;6053;51.382;6.768;2023-04-24T14:50:44;0.65;;;0.65;;
11986;SDS011;6053;51.382;6.768;2023-04-24T14:53:14;0.70;;;0.50;;
11986;SDS011;6053;51.382;6.768;2023-04-24T14:55:43;0.70;;;0.65;;
11986;SDS011;6053;51.382;6.768;2023-04-24T14:58:12;0.80;;;0.60;;
11986;SDS011;6053;51.382;6.768;2023-04-24T15:00:41;1.00;;;0.70;;
11986;SDS011;6053;51.382;6.768;2023-04-24T15:03:11;0.95;;;0.80;;
11986;SDS011;6053;51.382;6.768;2023-04-24T15:05:42;1.23;;;0.90;;
11986;SDS011;6053;51.382;6.768;2023-04-24T15:08:11;0.50;;;0.50;;
11986;SDS011;6053;51.382;6.768;2023-04-24T15:10:40;0.60;;;0.60;;
11986;SDS011;6053;51.382;6.768;2023-04-24T15:13:09;0.70;;;0.50;;
11986;SDS011;6053;51.382;6.768;2023-04-24T15:15:39;0.70;;;0.70;;
11986;SDS011;6053;51.382;6.768;2023-04-24T15:18:10;0.50;;;0.50;;
11986;SDS011;6053;51.382;6.768;2023-04-24T15:20:39;1.73;;;0.63;;